createdAt,value
2022-08-26T00:02:17.357Z,9.90
2022-08-26T00:04:50.063Z,9.40
2022-08-26T00:07:18.870Z,9.57
2022-08-26T00:09:47.423Z,9.02
2022-08-26T00:12:15.703Z,9.25
2022-08-26T00:14:43.871Z,12.75
2022-08-26T00:17:12.304Z,10.75
2022-08-26T00:19:40.416Z,10.88
2022-08-26T00:22:12.535Z,9.98
2022-08-26T00:24:48.295Z,10.93
2022-08-26T00:27:16.356Z,11.40
2022-08-26T00:29:45.360Z,13.90
2022-08-26T00:32:13.489Z,10.25
2022-08-26T00:34:42.399Z,10.63
2022-08-26T00:37:15.658Z,9.10
2022-08-26T00:39:44.233Z,9.40
2022-08-26T00:42:13.936Z,7.70
2022-08-26T00:44:42.061Z,7.90
2022-08-26T00:47:17.474Z,11.75
2022-08-26T00:49:48.534Z,9.23
2022-08-26T00:52:21.247Z,10.35
2022-08-26T00:54:57.876Z,11.43
2022-08-26T00:57:26.133Z,8.70
2022-08-26T00:59:57.429Z,12.38
2022-08-26T01:02:25.887Z,8.52
2022-08-26T01:04:59.858Z,10.15
2022-08-26T01:07:31.328Z,8.60
2022-08-26T01:10:01.032Z,11.20
2022-08-26T01:12:32.354Z,13.48
2022-08-26T01:15:02.101Z,7.28
2022-08-26T01:17:30.174Z,11.57
2022-08-26T01:20:08.688Z,12.73
2022-08-26T01:22:47.244Z,11.23
2022-08-26T01:25:16.021Z,13.23
2022-08-26T01:27:44.898Z,7.78
2022-08-26T01:30:17.832Z,9.38
2022-08-26T01:32:46.725Z,11.57
2022-08-26T01:35:14.782Z,21.92
2022-08-26T01:37:44.678Z,12.23
2022-08-26T01:40:19.409Z,9.05
2022-08-26T01:42:49.124Z,12.88
2022-08-26T01:45:22.245Z,9.32
2022-08-26T01:47:56.834Z,13.73
2022-08-26T01:50:30.693Z,14.93
2022-08-26T01:53:03.770Z,9.85
2022-08-26T01:55:34.039Z,10.27
2022-08-26T01:58:07.080Z,10.85
2022-08-26T02:00:36.372Z,9.70
2022-08-26T02:03:21.446Z,10.70
2022-08-26T02:05:56.107Z,7.07
2022-08-26T02:08:29.801Z,9.40
2022-08-26T02:10:58.566Z,9.68
2022-08-26T02:13:29.994Z,12.60
2022-08-26T02:15:58.898Z,8.95
2022-08-26T02:18:28.639Z,10.45
2022-08-26T02:20:58.053Z,10.50
2022-08-26T02:23:27.507Z,10.75
2022-08-26T02:26:01.028Z,8.90
2022-08-26T02:28:34.360Z,10.30
2022-08-26T02:31:02.783Z,11.27
2022-08-26T02:33:31.264Z,11.38
2022-08-26T02:35:59.322Z,16.98
2022-08-26T02:38:29.447Z,12.32
2022-08-26T02:40:57.756Z,10.02
2022-08-26T02:43:31.347Z,10.65
2022-08-26T02:46:02.293Z,9.40
2022-08-26T02:48:30.785Z,6.68
2022-08-26T02:51:00.299Z,6.35
2022-08-26T02:53:32.084Z,11.05
2022-08-26T02:56:04.314Z,9.43
2022-08-26T02:58:32.449Z,7.68
2022-08-26T03:01:01.568Z,13.55
2022-08-26T03:03:33.396Z,13.75
2022-08-26T03:06:01.525Z,12.15
2022-08-26T03:08:30.881Z,9.65
2022-08-26T03:10:59.282Z,11.18
2022-08-26T03:13:29.927Z,11.63
2022-08-26T03:15:57.983Z,13.18
2022-08-26T03:18:26.876Z,9.57
2022-08-26T03:20:54.952Z,14.82
2022-08-26T03:23:23.422Z,11.05
2022-08-26T03:25:54.074Z,12.05
2022-08-26T03:28:22.192Z,12.93
2022-08-26T03:30:49.271Z,8.77
2022-08-26T03:33:19.059Z,13.38
2022-08-26T03:35:50.501Z,12.18
2022-08-26T03:38:19.937Z,10.52
2022-08-26T03:40:48.074Z,11.15
2022-08-26T03:43:18.429Z,7.78
2022-08-26T03:45:46.485Z,9.45
2022-08-26T03:48:14.956Z,9.80
2022-08-26T03:50:43.618Z,9.57
2022-08-26T03:53:13.130Z,9.20
2022-08-26T03:55:42.256Z,7.68
2022-08-26T03:58:11.374Z,9.63
2022-08-26T04:00:40.762Z,8.57
2022-08-26T04:06:09.329Z,14.65
2022-08-26T04:08:37.835Z,12.48
2022-08-26T04:11:07.220Z,10.48
2022-08-26T04:13:35.615Z,9.75
2022-08-26T04:16:05.422Z,12.05
2022-08-26T04:18:37.025Z,11.27
2022-08-26T04:21:07.900Z,7.57
2022-08-26T04:23:47.038Z,10.10
2022-08-26T04:26:16.282Z,10.40
2022-08-26T04:28:44.321Z,13.20
2022-08-26T04:31:15.562Z,11.13
2022-08-26T04:33:44.236Z,7.72
2022-08-26T04:36:15.303Z,10.35
2022-08-26T04:38:44.543Z,10.57
2022-08-26T04:41:14.955Z,9.38
2022-08-26T04:43:43.983Z,8.35
2022-08-26T04:46:14.593Z,10.00
2022-08-26T04:48:44.014Z,10.57
2022-08-26T04:51:12.533Z,9.68
2022-08-26T04:53:40.767Z,10.82
2022-08-26T04:56:09.330Z,16.67
2022-08-26T04:58:38.250Z,12.52
2022-08-26T05:01:08.304Z,17.42
2022-08-26T05:03:38.170Z,11.73
2022-08-26T05:06:09.445Z,8.80
2022-08-26T05:08:37.520Z,9.20
2022-08-26T05:11:07.434Z,10.57
2022-08-26T05:13:39.158Z,17.58
2022-08-26T05:16:11.639Z,11.48
2022-08-26T05:18:43.474Z,15.25
2022-08-26T05:21:19.998Z,11.75
2022-08-26T05:23:49.067Z,8.27
2022-08-26T05:26:18.028Z,16.92
2022-08-26T05:28:51.223Z,15.05
2022-08-26T05:31:26.315Z,10.65
2022-08-26T05:33:56.792Z,16.17
2022-08-26T05:36:27.123Z,17.40
2022-08-26T05:38:55.671Z,19.55
2022-08-26T05:41:34.425Z,25.42
2022-08-26T05:44:06.430Z,24.77
2022-08-26T05:46:35.578Z,28.90
2022-08-26T05:49:06.054Z,33.80
2022-08-26T05:51:42.128Z,30.45
2022-08-26T05:54:10.484Z,27.02
2022-08-26T05:56:39.053Z,30.27
2022-08-26T05:59:14.136Z,28.60
2022-08-26T06:01:43.878Z,30.75
2022-08-26T06:04:13.757Z,28.98
2022-08-26T06:06:43.032Z,24.00
2022-08-26T06:09:13.131Z,24.63
2022-08-26T06:11:41.126Z,21.63
2022-08-26T06:14:11.728Z,27.92
2022-08-26T06:16:43.784Z,28.85
2022-08-26T06:19:17.237Z,28.15
2022-08-26T06:21:54.122Z,27.63
2022-08-26T06:24:40.166Z,27.27
2022-08-26T06:27:09.971Z,24.40
2022-08-26T06:29:39.805Z,30.13
2022-08-26T06:32:08.680Z,29.45
2022-08-26T06:34:38.366Z,30.13
2022-08-26T06:37:07.186Z,29.60
2022-08-26T06:39:35.461Z,26.33
2022-08-26T06:42:08.635Z,29.45
2022-08-26T06:44:39.015Z,28.60
2022-08-26T06:47:09.053Z,31.58
2022-08-26T06:49:38.513Z,27.48
2022-08-26T06:52:07.883Z,21.25
2022-08-26T06:54:37.027Z,30.95
2022-08-26T06:57:07.137Z,29.38
2022-08-26T06:59:35.158Z,26.48
2022-08-26T07:02:03.469Z,29.55
2022-08-26T07:04:31.685Z,24.52
2022-08-26T07:07:01.401Z,28.08
2022-08-26T07:09:33.131Z,24.27
2022-08-26T07:12:01.793Z,25.25
2022-08-26T07:14:31.660Z,27.08
2022-08-26T07:17:01.322Z,24.10
2022-08-26T07:19:31.417Z,23.25
2022-08-26T07:22:04.032Z,32.13
2022-08-26T07:24:33.606Z,27.42
2022-08-26T07:27:05.804Z,24.85
2022-08-26T07:29:34.522Z,26.48
2022-08-26T07:32:03.346Z,30.75
2022-08-26T07:34:32.224Z,22.10
2022-08-26T07:37:02.773Z,27.90
2022-08-26T07:39:32.332Z,22.45
2022-08-26T07:42:01.667Z,26.02
2022-08-26T07:44:36.147Z,22.52
2022-08-26T07:47:10.366Z,26.88
2022-08-26T07:49:52.990Z,27.77
2022-08-26T07:52:26.608Z,23.90
2022-08-26T07:54:55.995Z,29.27
2022-08-26T07:57:24.426Z,26.20
2022-08-26T07:59:54.018Z,32.08
2022-08-26T08:02:24.292Z,34.40
2022-08-26T08:04:53.142Z,37.95
2022-08-26T08:07:21.696Z,28.58
2022-08-26T08:10:09.954Z,32.95
2022-08-26T08:12:39.886Z,29.13
2022-08-26T08:15:09.869Z,30.85
2022-08-26T08:17:38.286Z,22.95
2022-08-26T08:20:07.672Z,29.85
2022-08-26T08:22:36.050Z,25.00
2022-08-26T08:25:08.037Z,27.17
2022-08-26T08:27:39.837Z,24.38
2022-08-26T08:30:10.049Z,27.33
2022-08-26T08:32:43.501Z,32.72
2022-08-26T08:35:13.503Z,25.17
2022-08-26T08:37:43.643Z,23.88
2022-08-26T08:40:14.071Z,31.73
2022-08-26T08:42:48.874Z,26.70
2022-08-26T08:45:21.215Z,33.00
2022-08-26T08:47:53.019Z,20.95
2022-08-26T08:50:27.355Z,25.08
2022-08-26T08:53:05.801Z,27.27
2022-08-26T08:55:51.842Z,26.92
2022-08-26T08:58:28.221Z,20.92
2022-08-26T09:01:03.010Z,23.10
2022-08-26T09:03:44.049Z,26.25
2022-08-26T09:06:18.975Z,19.20
2022-08-26T09:12:36.170Z,23.73
2022-08-26T09:15:22.538Z,18.45
2022-08-26T09:18:00.058Z,24.05
2022-08-26T09:20:39.441Z,25.38
2022-08-26T09:23:07.915Z,27.17
2022-08-26T09:25:46.999Z,26.00
2022-08-26T09:28:18.806Z,20.77
2022-08-26T09:30:59.357Z,22.27
2022-08-26T09:33:30.374Z,25.42
2022-08-26T09:36:15.255Z,26.98
2022-08-26T09:38:44.182Z,18.00
2022-08-26T09:41:24.736Z,33.80
2022-08-26T09:44:15.774Z,32.38
2022-08-26T09:46:55.555Z,23.55
2022-08-26T09:49:36.027Z,22.77
2022-08-26T09:52:16.322Z,23.25
2022-08-26T09:54:46.162Z,20.17
2022-08-26T09:57:21.095Z,24.63
2022-08-26T09:59:51.049Z,18.25
2022-08-26T10:02:38.371Z,26.20
2022-08-26T10:05:11.346Z,25.33
2022-08-26T10:08:26.955Z,29.48
2022-08-26T10:10:57.581Z,22.00
2022-08-26T10:13:34.373Z,18.75
2022-08-26T10:16:15.551Z,25.02
2022-08-26T10:18:50.882Z,17.23
2022-08-26T10:21:24.865Z,26.83
2022-08-26T10:23:56.928Z,29.52
2022-08-26T10:26:29.160Z,17.13
2022-08-26T10:29:06.241Z,22.08
2022-08-26T10:31:40.491Z,19.10
2022-08-26T10:34:12.497Z,25.38
2022-08-26T10:37:14.488Z,24.63
2022-08-26T10:39:49.463Z,17.58
2022-08-26T10:42:29.111Z,15.40
2022-08-26T10:45:03.164Z,15.07
2022-08-26T10:47:38.320Z,20.35
2022-08-26T10:50:08.597Z,15.60
2022-08-26T10:52:51.048Z,16.40
2022-08-26T10:55:28.556Z,15.60
2022-08-26T10:58:06.501Z,17.40
2022-08-26T11:01:00.936Z,13.50
2022-08-26T11:03:37.835Z,24.58
2022-08-26T11:06:24.812Z,14.13
2022-08-26T11:08:55.434Z,17.73
2022-08-26T11:11:51.341Z,15.57
2022-08-26T11:14:46.099Z,15.30
2022-08-26T11:17:56.611Z,17.52
2022-08-26T11:20:39.135Z,15.60
2022-08-26T11:23:50.606Z,15.57
2022-08-26T11:26:36.150Z,15.43
2022-08-26T11:29:13.205Z,20.30
2022-08-26T11:31:55.990Z,17.10
2022-08-26T11:34:54.099Z,12.15
2022-08-26T11:37:27.361Z,16.17
2022-08-26T11:39:57.849Z,16.70
2022-08-26T11:42:34.327Z,16.30
2022-08-26T11:45:14.301Z,15.25
2022-08-26T11:47:42.626Z,15.40
2022-08-26T11:50:14.501Z,15.23
2022-08-26T11:52:51.323Z,14.15
2022-08-26T11:55:23.224Z,13.10
2022-08-26T11:57:55.416Z,15.52
2022-08-26T12:00:26.456Z,16.13
2022-08-26T12:02:55.625Z,17.55
2022-08-26T12:05:29.529Z,15.90
2022-08-26T12:08:03.731Z,15.02
2022-08-26T12:10:34.834Z,22.08
2022-08-26T12:13:05.322Z,21.67
2022-08-26T12:15:35.608Z,17.50
2022-08-26T12:18:20.636Z,14.68
2022-08-26T12:21:00.596Z,17.05
2022-08-26T12:23:41.937Z,13.75
2022-08-26T12:26:20.860Z,16.05
2022-08-26T12:28:51.881Z,18.48
2022-08-26T12:31:41.811Z,15.25
2022-08-26T12:34:17.991Z,11.02
2022-08-26T12:36:49.755Z,17.55
2022-08-26T12:39:27.820Z,18.33
2022-08-26T12:41:59.042Z,13.55
2022-08-26T12:44:54.207Z,14.52
2022-08-26T12:47:36.922Z,15.55
2022-08-26T12:50:17.479Z,18.65
2022-08-26T12:52:57.678Z,16.08
2022-08-26T12:55:27.678Z,15.90
2022-08-26T12:58:13.416Z,19.70
2022-08-26T13:00:43.365Z,15.77
2022-08-26T13:03:43.287Z,14.55
2022-08-26T13:06:15.646Z,15.73
2022-08-26T13:08:45.742Z,21.52
2022-08-26T13:11:20.053Z,18.10
2022-08-26T13:13:51.632Z,21.80
2022-08-26T13:16:20.379Z,18.75
2022-08-26T13:18:49.497Z,29.42
2022-08-26T13:21:19.926Z,19.75
2022-08-26T13:23:48.325Z,22.77
2022-08-26T13:26:16.763Z,21.58
2022-08-26T13:28:44.879Z,14.88
2022-08-26T13:31:18.146Z,20.73
2022-08-26T13:33:47.037Z,25.38
2022-08-26T13:36:17.426Z,15.13
2022-08-26T13:38:48.330Z,14.55
2022-08-26T13:41:28.888Z,29.20
2022-08-26T13:43:59.553Z,25.05
2022-08-26T13:46:29.704Z,22.27
2022-08-26T13:48:58.452Z,14.00
2022-08-26T13:51:28.166Z,23.27
2022-08-26T14:33:42.340Z,15.05
2022-08-26T14:36:25.100Z,13.32
2022-08-26T14:38:54.100Z,15.23
2022-08-26T14:41:23.921Z,12.48
2022-08-26T14:43:57.893Z,11.45
2022-08-26T14:46:34.601Z,11.45
2022-08-26T14:49:07.280Z,9.40
2022-08-26T14:51:38.013Z,10.52
2022-08-26T14:54:16.163Z,9.35
2022-08-26T14:56:48.503Z,9.45
2022-08-26T14:59:19.318Z,12.88
2022-08-26T15:01:47.807Z,9.48
2022-08-26T15:04:17.719Z,7.95
2022-08-26T15:06:46.152Z,10.70
2022-08-26T15:09:14.879Z,11.65
2022-08-26T15:11:43.115Z,11.63
2022-08-26T15:14:14.681Z,10.57
2022-08-26T15:16:49.106Z,12.25
2022-08-26T15:19:18.784Z,12.70
2022-08-26T15:21:47.857Z,14.43
2022-08-26T15:24:17.039Z,11.02
2022-08-26T15:26:45.870Z,14.27
2022-08-26T15:29:14.370Z,11.00
2022-08-26T15:31:43.060Z,11.00
2022-08-26T15:34:16.456Z,8.48
2022-08-26T15:36:48.155Z,10.10
2022-08-26T15:39:18.088Z,14.98
2022-08-26T15:41:46.263Z,10.13
2022-08-26T15:44:57.575Z,11.63
2022-08-26T15:47:25.592Z,13.40
2022-08-26T15:49:53.670Z,12.68
2022-08-26T15:52:23.095Z,14.60
2022-08-26T15:54:51.405Z,11.85
2022-08-26T15:57:19.833Z,11.82
2022-08-26T15:59:48.376Z,7.90
2022-08-26T16:02:16.554Z,9.23
2022-08-26T16:04:44.646Z,10.25
2022-08-26T16:07:13.545Z,9.20
2022-08-26T16:09:42.986Z,9.90
2022-08-26T16:12:11.106Z,13.48
2022-08-26T16:14:42.002Z,11.73
2022-08-26T16:17:10.055Z,12.73
2022-08-26T16:19:38.244Z,13.73
2022-08-26T16:22:09.124Z,12.43
2022-08-26T16:24:37.662Z,12.88
2022-08-26T16:27:08.609Z,13.02
2022-08-26T16:29:39.315Z,12.80
2022-08-26T16:32:08.878Z,11.65
2022-08-26T16:34:36.947Z,11.80
2022-08-26T16:37:05.040Z,13.05
2022-08-26T16:39:33.495Z,10.32
2022-08-26T16:42:09.931Z,11.63
2022-08-26T16:44:45.321Z,12.65
2022-08-26T16:47:14.191Z,12.30
2022-08-26T16:49:43.134Z,16.40
2022-08-26T16:52:14.126Z,14.50
2022-08-26T16:54:42.455Z,15.18
2022-08-26T16:57:14.325Z,13.10
2022-08-26T16:59:42.752Z,13.07
2022-08-26T17:02:11.772Z,14.35
2022-08-26T17:04:41.137Z,11.75
2022-08-26T17:07:14.176Z,13.10
2022-08-26T17:09:43.072Z,13.32
2022-08-26T17:12:12.502Z,12.40
2022-08-26T17:14:40.596Z,10.55
2022-08-26T17:17:08.772Z,11.38
2022-08-26T17:19:41.073Z,10.82
2022-08-26T17:22:15.199Z,12.80
2022-08-26T17:24:43.334Z,10.00
2022-08-26T17:27:12.855Z,16.92
2022-08-26T17:29:41.027Z,12.32
2022-08-26T17:32:09.098Z,12.02
2022-08-26T17:34:37.143Z,12.98
2022-08-26T17:37:05.415Z,13.32
2022-08-26T17:39:33.456Z,12.43
2022-08-26T17:42:01.512Z,14.45
2022-08-26T17:44:30.935Z,13.95
2022-08-26T17:46:58.974Z,13.35
2022-08-26T17:49:27.354Z,8.32
2022-08-26T17:51:57.992Z,11.02
2022-08-26T17:54:27.706Z,10.93
2022-08-26T17:56:58.268Z,18.52
2022-08-26T17:59:30.539Z,13.93
2022-08-26T18:02:00.288Z,14.07
2022-08-26T18:04:28.500Z,12.10
2022-08-26T18:06:56.605Z,12.10
2022-08-26T18:09:24.652Z,14.80
2022-08-26T18:11:52.778Z,15.15
2022-08-26T18:14:21.759Z,12.25
2022-08-26T18:16:50.968Z,12.70
2022-08-26T18:19:20.473Z,11.90
2022-08-26T18:21:48.537Z,11.20
2022-08-26T18:24:16.602Z,11.05
2022-08-26T18:26:48.880Z,12.70
2022-08-26T18:29:18.186Z,9.95
2022-08-26T18:31:46.677Z,10.77
2022-08-26T18:34:16.082Z,9.73
2022-08-26T18:36:45.634Z,10.25
2022-08-26T18:39:15.341Z,8.45
2022-08-26T18:41:45.770Z,12.10
2022-08-26T18:44:16.192Z,10.60
2022-08-26T18:46:46.503Z,10.15
2022-08-26T18:49:16.544Z,10.70
2022-08-26T18:51:46.593Z,10.95
2022-08-26T18:54:15.697Z,13.52
2022-08-26T18:56:43.890Z,11.20
2022-08-26T18:59:13.539Z,9.60
2022-08-26T19:01:42.621Z,13.95
2022-08-26T19:04:15.321Z,13.00
2022-08-26T19:06:46.941Z,10.80
2022-08-26T19:09:17.853Z,13.05
2022-08-26T19:11:46.999Z,11.43
2022-08-26T19:14:18.398Z,12.20
2022-08-26T19:16:49.618Z,13.68
2022-08-26T19:19:18.244Z,14.23
2022-08-26T19:21:47.789Z,10.68
2022-08-26T19:24:17.752Z,18.70
2022-08-26T19:26:47.340Z,9.70
2022-08-26T19:31:44.931Z,12.07
2022-08-26T19:34:18.249Z,14.55
2022-08-26T19:36:53.039Z,14.40
2022-08-26T19:39:21.317Z,13.85
2022-08-26T19:41:49.780Z,15.73
2022-08-26T19:44:39.912Z,13.52
2022-08-26T19:47:10.263Z,11.10
2022-08-26T19:49:38.915Z,14.05
2022-08-26T19:52:08.832Z,11.82
2022-08-26T19:54:36.872Z,18.40
2022-08-26T19:57:05.898Z,15.23
2022-08-26T19:59:35.351Z,13.35
2022-08-26T20:02:07.117Z,13.13
2022-08-26T20:04:38.262Z,14.27
2022-08-26T20:07:09.011Z,10.40
2022-08-26T20:09:38.382Z,11.95
2022-08-26T20:12:07.856Z,11.68
2022-08-26T20:14:36.432Z,13.50
2022-08-26T20:17:05.165Z,16.17
2022-08-26T20:19:50.891Z,14.50
2022-08-26T20:22:20.967Z,11.10
2022-08-26T20:24:49.808Z,12.15
2022-08-26T20:27:18.041Z,16.88
2022-08-26T20:29:46.096Z,13.10
2022-08-26T20:32:14.219Z,15.10
2022-08-26T20:34:42.667Z,14.32
2022-08-26T20:37:10.883Z,12.95
2022-08-26T20:39:40.395Z,13.93
2022-08-26T20:42:20.055Z,17.23
2022-08-26T20:44:54.374Z,17.67
2022-08-26T20:47:23.628Z,15.70
2022-08-26T20:49:52.308Z,19.83
2022-08-26T20:52:21.342Z,17.02
2022-08-26T20:54:50.777Z,17.50
2022-08-26T20:57:19.036Z,17.67
2022-08-26T20:59:47.158Z,15.73
2022-08-26T21:02:15.257Z,14.45
2022-08-26T21:04:43.462Z,12.90
2022-08-26T21:07:11.578Z,14.15
2022-08-26T21:09:39.728Z,17.67
2022-08-26T21:12:09.386Z,15.50
2022-08-26T21:14:37.501Z,22.23
2022-08-26T21:17:05.913Z,19.90
2022-08-26T21:19:34.010Z,16.23
2022-08-26T21:22:02.089Z,14.52
2022-08-26T21:24:30.187Z,16.45
2022-08-26T21:26:58.260Z,16.08
2022-08-26T21:29:27.709Z,18.10
2022-08-26T21:31:55.856Z,17.63
2022-08-26T21:34:23.984Z,16.67
2022-08-26T21:36:52.087Z,13.90
2022-08-26T21:39:20.327Z,19.42
2022-08-26T21:41:48.565Z,16.45
2022-08-26T21:44:18.604Z,16.17
2022-08-26T21:46:49.019Z,17.42
2022-08-26T21:49:17.879Z,16.23
2022-08-26T21:51:48.852Z,15.63
2022-08-26T21:58:49.045Z,17.88
2022-08-26T22:01:22.656Z,15.55
2022-08-26T22:03:53.431Z,14.15
2022-08-26T22:06:28.716Z,14.60
2022-08-26T22:08:57.326Z,16.15
2022-08-26T22:11:26.150Z,14.55
2022-08-26T22:13:55.205Z,13.63
2022-08-26T22:16:23.387Z,20.30
2022-08-26T22:18:53.329Z,17.40
2022-08-26T22:21:24.624Z,15.48
2022-08-26T22:23:58.014Z,14.02
2022-08-26T22:26:28.693Z,16.35
2022-08-26T22:28:59.091Z,13.70
2022-08-26T22:31:37.988Z,13.90
2022-08-26T22:34:09.578Z,13.85
2022-08-26T22:36:42.941Z,16.90
2022-08-26T22:39:13.049Z,18.00
2022-08-26T22:41:42.058Z,24.65
2022-08-26T22:44:10.518Z,14.98
2022-08-26T22:46:39.192Z,19.60
2022-08-26T22:49:10.178Z,18.88
2022-08-26T22:51:38.274Z,17.92
2022-08-26T22:54:06.745Z,19.20
2022-08-26T22:56:34.979Z,21.05
2022-08-26T22:59:03.153Z,20.75
2022-08-26T23:01:31.775Z,17.05
2022-08-26T23:03:59.902Z,20.08
2022-08-26T23:06:29.310Z,26.38
2022-08-26T23:08:57.384Z,18.70
2022-08-26T23:11:25.440Z,18.30
2022-08-26T23:13:53.485Z,22.10
2022-08-26T23:16:21.595Z,24.85
2022-08-26T23:18:50.321Z,25.30
2022-08-26T23:21:18.437Z,29.42
2022-08-26T23:23:47.867Z,23.10
2022-08-26T23:26:17.776Z,28.02
2022-08-26T23:28:47.030Z,22.48
2022-08-26T23:31:15.362Z,23.17
2022-08-26T23:34:00.932Z,24.02
2022-08-26T23:36:31.176Z,24.42
2022-08-26T23:39:05.853Z,21.30
2022-08-26T23:41:35.678Z,23.55
2022-08-26T23:44:05.345Z,21.88
2022-08-26T23:46:34.476Z,24.35
2022-08-26T23:49:04.061Z,20.90
2022-08-26T23:51:49.470Z,19.58
2022-08-26T23:54:19.542Z,25.60
2022-08-26T23:56:48.219Z,29.02
2022-08-26T23:59:16.677Z,23.52
